createdAt,value
2018-03-08T00:00:02.044Z,3.26
2018-03-08T00:02:29.740Z,3.27
2018-03-08T00:04:57.433Z,3.27
2018-03-08T00:07:25.070Z,3.27
2018-03-08T00:09:52.766Z,3.27
2018-03-08T00:12:20.406Z,3.39
2018-03-08T00:14:48.081Z,3.46
2018-03-08T00:17:15.904Z,3.47
2018-03-08T00:19:43.538Z,3.47
2018-03-08T00:22:11.226Z,3.51
2018-03-08T00:24:38.864Z,3.53
2018-03-08T00:27:06.552Z,3.53
2018-03-08T00:29:34.214Z,3.49
2018-03-08T00:32:01.892Z,3.43
2018-03-08T00:34:29.526Z,3.38
2018-03-08T00:36:58.125Z,3.27
2018-03-08T00:39:25.760Z,3.28
2018-03-08T00:41:53.484Z,3.23
2018-03-08T00:44:21.145Z,3.22
2018-03-08T00:46:48.837Z,3.21
2018-03-08T00:49:17.346Z,3.10
2018-03-08T00:51:45.033Z,3.16
2018-03-08T00:54:12.676Z,3.17
2018-03-08T00:56:40.352Z,3.13
2018-03-08T00:59:07.987Z,3.09
2018-03-08T01:01:36.369Z,3.07
2018-03-08T01:04:04.020Z,3.05
2018-03-08T01:06:31.703Z,3.06
2018-03-08T01:08:59.336Z,3.09
2018-03-08T01:11:27.015Z,3.06
2018-03-08T01:13:54.645Z,3.07
2018-03-08T01:16:22.332Z,3.04
2018-03-08T01:18:50.076Z,2.97
2018-03-08T01:21:17.710Z,3.00
2018-03-08T01:23:45.477Z,3.10
2018-03-08T01:26:13.173Z,3.13
2018-03-08T01:28:40.815Z,3.17
2018-03-08T01:31:08.640Z,3.19
2018-03-08T01:33:36.412Z,3.22
2018-03-08T01:36:04.080Z,3.23
2018-03-08T01:38:31.766Z,3.21
2018-03-08T01:40:59.408Z,3.05
2018-03-08T01:43:27.145Z,3.04
2018-03-08T01:45:54.796Z,3.11
2018-03-08T01:48:22.481Z,3.14
2018-03-08T01:50:50.258Z,3.19
2018-03-08T01:53:17.953Z,2.67
2018-03-08T01:55:45.716Z,2.57
2018-03-08T01:58:13.426Z,3.10
2018-03-08T02:00:41.052Z,3.14
2018-03-08T02:03:08.752Z,3.18
2018-03-08T02:05:36.393Z,3.19
2018-03-08T02:08:04.026Z,3.21
2018-03-08T02:10:31.702Z,3.16
2018-03-08T02:12:59.385Z,3.15
2018-03-08T02:15:27.043Z,3.08
2018-03-08T02:17:54.732Z,3.05
2018-03-08T02:20:22.415Z,2.99
2018-03-08T02:22:50.131Z,2.96
2018-03-08T02:25:17.808Z,3.00
2018-03-08T02:27:45.504Z,3.04
2018-03-08T02:30:13.190Z,3.05
2018-03-08T02:32:40.833Z,2.98
2018-03-08T02:35:08.582Z,2.97
2018-03-08T02:37:36.217Z,2.95
2018-03-08T02:40:03.956Z,2.94
2018-03-08T02:42:31.601Z,2.84
2018-03-08T02:44:59.243Z,2.83
2018-03-08T02:47:27.716Z,2.84
2018-03-08T02:49:55.424Z,2.70
2018-03-08T02:52:23.052Z,2.67
2018-03-08T02:54:50.728Z,2.72
2018-03-08T02:57:18.375Z,2.67
2018-03-08T02:59:47.045Z,2.64
2018-03-08T03:02:14.754Z,2.69
2018-03-08T03:04:42.438Z,2.66
2018-03-08T03:07:10.151Z,2.70
2018-03-08T03:09:37.833Z,2.70
2018-03-08T03:12:05.502Z,2.68
2018-03-08T03:14:33.178Z,2.62
2018-03-08T03:17:00.863Z,2.61
2018-03-08T03:19:28.507Z,2.57
2018-03-08T03:21:56.196Z,2.52
2018-03-08T03:24:23.825Z,2.54
2018-03-08T03:26:51.523Z,2.52
2018-03-08T03:29:19.171Z,2.54
2018-03-08T03:31:46.964Z,2.48
2018-03-08T03:34:14.653Z,2.49
2018-03-08T03:36:42.292Z,2.44
2018-03-08T03:39:09.970Z,2.54
2018-03-08T03:41:37.653Z,2.65
2018-03-08T03:44:05.353Z,2.79
2018-03-08T03:46:33.006Z,2.88
2018-03-08T03:49:00.683Z,2.87
2018-03-08T03:51:28.369Z,2.91
2018-03-08T03:53:56.052Z,2.84
2018-03-08T03:56:23.736Z,2.88
2018-03-08T03:58:51.491Z,2.91
2018-03-08T04:01:19.175Z,2.99
2018-03-08T04:03:46.992Z,2.95
2018-03-08T04:06:14.688Z,3.00
2018-03-08T04:08:42.360Z,2.98
2018-03-08T04:11:10.163Z,3.00
2018-03-08T04:13:37.810Z,2.87
2018-03-08T04:16:05.501Z,2.92
2018-03-08T04:18:33.145Z,2.88
2018-03-08T04:21:00.834Z,2.85
2018-03-08T04:23:28.469Z,2.79
2018-03-08T04:25:56.186Z,2.80
2018-03-08T04:28:23.830Z,2.76
2018-03-08T04:30:51.628Z,2.74
2018-03-08T04:33:24.366Z,2.77
2018-03-08T04:35:52.200Z,2.70
2018-03-08T04:38:19.878Z,2.79
2018-03-08T04:40:47.655Z,2.86
2018-03-08T04:43:15.338Z,3.01
2018-03-08T04:45:42.968Z,3.06
2018-03-08T04:48:10.811Z,3.10
2018-03-08T04:50:38.466Z,3.15
2018-03-08T04:53:06.151Z,3.16
2018-03-08T04:55:33.913Z,3.18
2018-03-08T04:58:01.604Z,3.21
2018-03-08T05:00:29.275Z,3.26
2018-03-08T05:02:56.968Z,3.28
2018-03-08T05:05:24.650Z,3.29
2018-03-08T05:07:52.344Z,3.28
2018-03-08T05:10:19.987Z,3.29
2018-03-08T05:12:47.750Z,3.32
2018-03-08T05:15:15.411Z,3.34
2018-03-08T05:17:43.106Z,3.35
2018-03-08T05:20:10.871Z,3.60
2018-03-08T05:22:38.590Z,3.63
2018-03-08T05:25:06.278Z,3.22
2018-03-08T05:27:33.998Z,2.97
2018-03-08T05:30:01.664Z,2.83
2018-03-08T05:32:29.359Z,2.72
2018-03-08T05:34:57.011Z,2.59
2018-03-08T05:37:24.712Z,2.58
2018-03-08T05:39:52.547Z,2.57
2018-03-08T05:42:20.200Z,2.56
2018-03-08T05:44:47.892Z,2.58
2018-03-08T05:47:15.528Z,2.52
2018-03-08T05:49:43.260Z,2.55
2018-03-08T05:52:10.908Z,2.57
2018-03-08T05:54:38.592Z,2.53
2018-03-08T05:57:06.239Z,2.46
2018-03-08T05:59:34.884Z,2.50
2018-03-08T06:02:02.656Z,2.57
2018-03-08T06:04:30.356Z,2.61
2018-03-08T06:06:58.059Z,2.65
2018-03-08T06:09:25.763Z,2.68
2018-03-08T06:11:53.468Z,2.61
2018-03-08T06:14:21.507Z,2.64
2018-03-08T06:16:49.478Z,2.63
2018-03-08T06:19:17.331Z,2.62
2018-03-08T06:21:45.220Z,2.65
2018-03-08T06:24:13.097Z,2.64
2018-03-08T06:26:41.040Z,2.61
2018-03-08T06:29:08.706Z,2.60
2018-03-08T06:31:36.417Z,2.52
2018-03-08T06:34:04.096Z,2.61
2018-03-08T06:36:31.866Z,2.71
2018-03-08T06:38:59.703Z,2.80
2018-03-08T06:41:27.435Z,2.77
2018-03-08T06:43:56.578Z,2.81
2018-03-08T06:46:24.422Z,2.86
2018-03-08T06:48:52.287Z,2.88
2018-03-08T06:51:20.087Z,2.88
2018-03-08T06:53:47.863Z,2.87
2018-03-08T06:56:15.593Z,2.83
2018-03-08T06:58:43.427Z,2.66
2018-03-08T07:01:11.123Z,2.64
2018-03-08T07:03:38.782Z,2.76
2018-03-08T07:06:06.626Z,2.84
2018-03-08T07:08:34.532Z,2.88
2018-03-08T07:11:02.378Z,2.92
2018-03-08T07:13:30.215Z,2.88
2018-03-08T07:15:58.090Z,2.90
2018-03-08T07:18:25.866Z,2.93
2018-03-08T07:20:53.698Z,3.03
2018-03-08T07:23:21.396Z,3.06
2018-03-08T07:25:49.079Z,3.12
2018-03-08T07:28:16.743Z,3.16
2018-03-08T07:30:44.502Z,3.22
2018-03-08T07:33:12.173Z,3.22
2018-03-08T07:35:39.981Z,3.25
2018-03-08T07:38:07.743Z,3.27
2018-03-08T07:40:35.570Z,3.28
2018-03-08T07:43:03.325Z,3.33
2018-03-08T07:45:31.161Z,3.36
2018-03-08T07:47:58.983Z,3.43
2018-03-08T07:50:26.695Z,3.51
2018-03-08T07:52:54.498Z,3.50
2018-03-08T07:55:22.250Z,3.54
2018-03-08T07:57:50.030Z,3.59
2018-03-08T08:00:17.789Z,3.66
2018-03-08T08:02:45.595Z,3.72
2018-03-08T08:05:25.033Z,3.73
2018-03-08T08:08:04.390Z,3.77
2018-03-08T08:10:32.238Z,3.87
2018-03-08T08:13:00.096Z,3.98
2018-03-08T08:15:27.844Z,4.00
2018-03-08T08:17:55.716Z,4.09
2018-03-08T08:20:23.499Z,4.15
2018-03-08T08:22:51.378Z,4.20
2018-03-08T08:25:19.191Z,4.25
2018-03-08T08:27:46.978Z,4.30
2018-03-08T08:30:14.755Z,4.37
2018-03-08T08:32:42.570Z,4.44
2018-03-08T08:35:10.314Z,4.47
2018-03-08T08:37:38.142Z,4.54
2018-03-08T08:40:05.951Z,4.63
2018-03-08T08:42:33.827Z,4.66
2018-03-08T08:45:01.646Z,4.60
2018-03-08T08:47:29.483Z,4.60
2018-03-08T08:49:57.237Z,4.56
2018-03-08T08:52:25.263Z,4.54
2018-03-08T08:54:53.047Z,4.60
2018-03-08T08:57:21.676Z,4.64
2018-03-08T08:59:49.542Z,4.63
2018-03-08T09:02:17.287Z,4.68
2018-03-08T09:04:45.142Z,4.69
2018-03-08T09:07:12.959Z,4.75
2018-03-08T09:09:40.775Z,4.67
2018-03-08T09:12:08.515Z,4.81
2018-03-08T09:14:36.585Z,4.85
2018-03-08T09:17:04.355Z,4.88
2018-03-08T09:19:32.227Z,4.93
2018-03-08T09:21:59.971Z,4.95
2018-03-08T09:24:27.790Z,4.99
2018-03-08T09:26:55.566Z,5.07
2018-03-08T09:29:23.395Z,5.15
2018-03-08T09:31:51.271Z,5.08
2018-03-08T09:34:19.150Z,5.09
2018-03-08T09:36:46.829Z,4.94
2018-03-08T09:39:14.576Z,4.96
2018-03-08T09:41:42.287Z,5.06
2018-03-08T09:44:10.032Z,5.13
2018-03-08T09:46:37.769Z,5.05
2018-03-08T09:49:05.456Z,4.97
2018-03-08T09:51:33.152Z,4.98
2018-03-08T09:54:00.858Z,5.03
2018-03-08T09:56:28.757Z,5.08
2018-03-08T09:58:56.445Z,5.13
2018-03-08T10:01:24.184Z,5.20
2018-03-08T10:03:51.868Z,5.34
2018-03-08T10:06:19.673Z,5.43
2018-03-08T10:08:47.422Z,5.44
2018-03-08T10:11:15.109Z,5.38
2018-03-08T10:13:42.879Z,5.44
2018-03-08T10:16:10.607Z,5.49
2018-03-08T10:18:38.354Z,5.48
2018-03-08T10:21:06.136Z,5.46
2018-03-08T10:23:33.858Z,5.46
2018-03-08T10:26:01.643Z,5.54
2018-03-08T10:28:29.309Z,5.67
2018-03-08T10:30:56.999Z,5.68
2018-03-08T10:33:24.758Z,5.77
2018-03-08T10:35:52.458Z,5.84
2018-03-08T10:38:20.371Z,5.99
2018-03-08T10:40:48.179Z,5.93
2018-03-08T10:43:15.896Z,6.04
2018-03-08T10:45:43.566Z,6.12
2018-03-08T10:48:11.290Z,6.31
2018-03-08T10:50:38.982Z,6.44
2018-03-08T10:53:06.829Z,6.49
2018-03-08T10:55:34.602Z,6.67
2018-03-08T10:58:02.378Z,6.87
2018-03-08T11:00:35.788Z,7.03
2018-03-08T11:03:06.981Z,7.23
2018-03-08T11:05:40.058Z,7.12
2018-03-08T11:08:07.881Z,7.13
2018-03-08T11:10:35.709Z,7.16
2018-03-08T11:13:03.444Z,7.26
2018-03-08T11:15:31.272Z,7.29
2018-03-08T11:17:59.209Z,7.29
2018-03-08T11:20:26.886Z,7.37
2018-03-08T11:22:54.569Z,7.32
2018-03-08T11:25:22.279Z,7.34
2018-03-08T11:27:49.990Z,7.33
2018-03-08T11:30:17.687Z,7.51
2018-03-08T11:32:45.356Z,7.63
2018-03-08T11:35:13.085Z,7.87
2018-03-08T11:37:40.915Z,8.06
2018-03-08T11:40:08.614Z,8.28
2018-03-08T11:42:36.442Z,8.51
2018-03-08T11:45:04.215Z,8.55
2018-03-08T11:47:31.891Z,8.53
2018-03-08T11:49:59.666Z,8.65
2018-03-08T11:52:27.386Z,8.61
2018-03-08T11:54:55.196Z,8.66
2018-03-08T11:57:22.990Z,8.67
2018-03-08T11:59:50.948Z,8.69
2018-03-08T12:02:18.779Z,8.65
2018-03-08T12:04:46.540Z,8.74
2018-03-08T12:07:14.343Z,8.87
2018-03-08T12:09:42.014Z,8.80
2018-03-08T12:12:09.850Z,9.02
2018-03-08T12:14:37.642Z,9.00
2018-03-08T12:17:05.432Z,8.81
2018-03-08T12:19:33.154Z,8.86
2018-03-08T12:22:00.999Z,8.74
2018-03-08T12:24:28.779Z,8.91
2018-03-08T12:26:56.563Z,9.11
2018-03-08T12:29:24.244Z,9.19
2018-03-08T12:31:52.119Z,9.10
2018-03-08T12:34:19.802Z,9.11
2018-03-08T12:36:47.530Z,9.02
2018-03-08T12:39:15.231Z,9.12
2018-03-08T12:41:43.021Z,9.19
2018-03-08T12:44:10.733Z,9.18
2018-03-08T12:46:38.386Z,9.26
2018-03-08T12:49:06.125Z,9.32
2018-03-08T12:51:33.892Z,9.62
2018-03-08T12:54:01.610Z,9.77
2018-03-08T12:56:29.411Z,9.51
2018-03-08T12:58:57.243Z,9.43
2018-03-08T13:01:24.889Z,9.35
2018-03-08T13:03:54.118Z,9.31
2018-03-08T13:06:22.007Z,9.32
2018-03-08T13:08:49.741Z,9.52
2018-03-08T13:11:17.438Z,9.65
2018-03-08T13:13:45.139Z,9.81
2018-03-08T13:16:12.978Z,9.77
2018-03-08T13:18:40.697Z,9.74
2018-03-08T13:21:08.364Z,9.71
2018-03-08T13:23:36.198Z,9.46
2018-03-08T13:26:03.967Z,9.47
2018-03-08T13:28:31.811Z,9.47
2018-03-08T13:30:59.475Z,9.60
2018-03-08T13:33:27.218Z,9.84
2018-03-08T13:35:55.047Z,10.01
2018-03-08T13:38:22.806Z,10.09
2018-03-08T13:40:50.669Z,10.10
2018-03-08T13:43:18.470Z,10.14
2018-03-08T13:45:46.309Z,9.99
2018-03-08T13:48:14.170Z,10.06
2018-03-08T13:50:41.962Z,10.27
2018-03-08T13:53:09.642Z,10.35
2018-03-08T13:55:37.354Z,10.32
2018-03-08T13:58:05.054Z,10.11
2018-03-08T14:00:32.714Z,10.10
2018-03-08T14:03:00.563Z,10.15
2018-03-08T14:05:28.302Z,10.36
2018-03-08T14:07:56.151Z,10.43
2018-03-08T14:10:23.883Z,10.51
2018-03-08T14:12:51.726Z,10.57
2018-03-08T14:15:19.478Z,10.51
2018-03-08T14:17:47.229Z,10.49
2018-03-08T14:20:15.086Z,10.48
2018-03-08T14:22:42.923Z,10.51
2018-03-08T14:25:10.743Z,10.62
2018-03-08T14:27:38.487Z,10.63
2018-03-08T14:30:06.350Z,10.73
2018-03-08T14:32:34.183Z,10.78
2018-03-08T14:35:01.887Z,10.88
2018-03-08T14:37:29.628Z,10.87
2018-03-08T14:39:57.344Z,10.87
2018-03-08T14:42:25.039Z,10.94
2018-03-08T14:44:52.724Z,10.90
2018-03-08T14:47:20.454Z,10.86
2018-03-08T14:49:48.283Z,10.82
2018-03-08T14:52:16.006Z,10.76
2018-03-08T14:54:43.874Z,10.67
2018-03-08T14:57:11.718Z,10.72
2018-03-08T14:59:39.480Z,10.75
2018-03-08T15:02:07.386Z,10.75
2018-03-08T15:04:35.053Z,10.68
2018-03-08T15:07:02.801Z,10.64
2018-03-08T15:09:30.497Z,10.54
2018-03-08T15:11:58.182Z,10.47
2018-03-08T15:14:25.888Z,10.31
2018-03-08T15:16:53.706Z,10.08
2018-03-08T15:19:21.454Z,10.06
2018-03-08T15:21:49.170Z,10.06
2018-03-08T15:24:16.894Z,10.09
2018-03-08T15:29:21.118Z,9.90
2018-03-08T15:31:48.778Z,9.70
2018-03-08T15:34:16.588Z,9.53
2018-03-08T15:36:44.313Z,9.43
2018-03-08T15:39:13.225Z,9.41
2018-03-08T15:41:41.008Z,9.45
2018-03-08T15:44:08.836Z,9.48
2018-03-08T15:46:36.591Z,9.45
2018-03-08T15:49:04.381Z,9.43
2018-03-08T15:51:32.190Z,9.41
2018-03-08T15:53:59.936Z,9.34
2018-03-08T15:56:27.631Z,9.33
2018-03-08T15:58:55.426Z,9.27
2018-03-08T16:01:23.237Z,9.21
2018-03-08T16:03:50.903Z,9.19
2018-03-08T16:06:25.382Z,9.17
2018-03-08T16:09:01.011Z,9.09
2018-03-08T16:11:28.804Z,8.98
2018-03-08T16:13:56.525Z,8.92
2018-03-08T16:16:24.247Z,8.88
2018-03-08T16:18:51.974Z,8.86
2018-03-08T16:21:19.687Z,8.84
2018-03-08T16:23:47.483Z,8.83
2018-03-08T16:26:15.305Z,8.91
2018-03-08T16:28:43.178Z,8.97
2018-03-08T16:31:10.911Z,9.02
2018-03-08T16:33:38.726Z,8.89
2018-03-08T16:36:06.491Z,9.00
2018-03-08T16:38:34.222Z,8.96
2018-03-08T16:41:01.935Z,8.94
2018-03-08T16:43:29.626Z,8.97
2018-03-08T16:45:57.374Z,8.97
2018-03-08T16:48:25.070Z,9.02
2018-03-08T16:50:52.734Z,8.96
2018-03-08T16:53:20.514Z,8.86
2018-03-08T16:55:48.238Z,8.79
2018-03-08T16:58:15.966Z,8.71
2018-03-08T17:00:43.632Z,8.83
2018-03-08T17:03:11.358Z,8.80
2018-03-08T17:05:39.911Z,8.74
2018-03-08T17:08:07.642Z,8.73
2018-03-08T17:10:35.378Z,8.63
2018-03-08T17:13:03.078Z,8.62
2018-03-08T17:15:30.799Z,8.63
2018-03-08T17:17:58.510Z,8.60
2018-03-08T17:20:26.294Z,8.68
2018-03-08T17:22:53.946Z,8.68
2018-03-08T17:25:21.697Z,8.61
2018-03-08T17:27:49.377Z,8.62
2018-03-08T17:30:17.139Z,8.60
2018-03-08T17:32:44.856Z,8.53
2018-03-08T17:35:12.558Z,8.51
2018-03-08T17:37:40.221Z,8.54
2018-03-08T17:40:07.928Z,8.52
2018-03-08T17:42:35.576Z,8.50
2018-03-08T17:45:03.267Z,8.46
2018-03-08T17:47:30.912Z,8.41
2018-03-08T17:49:58.757Z,8.31
2018-03-08T17:52:26.576Z,8.24
2018-03-08T17:54:54.325Z,8.30
2018-03-08T17:57:22.464Z,8.16
2018-03-08T17:59:50.478Z,8.13
2018-03-08T18:02:18.396Z,8.12
2018-03-08T18:04:46.643Z,8.14
2018-03-08T18:07:15.217Z,8.11
2018-03-08T18:09:43.402Z,7.89
2018-03-08T18:12:11.706Z,7.83
2018-03-08T18:14:40.014Z,7.80
2018-03-08T18:17:07.703Z,7.82
2018-03-08T18:19:35.397Z,7.78
2018-03-08T18:22:03.117Z,7.77
2018-03-08T18:24:30.771Z,7.73
2018-03-08T18:26:58.456Z,7.71
2018-03-08T18:29:26.104Z,7.68
2018-03-08T18:31:53.798Z,7.70
2018-03-08T18:34:21.516Z,7.68
2018-03-08T18:36:49.295Z,7.60
2018-03-08T18:39:16.973Z,7.57
2018-03-08T18:41:44.642Z,7.50
2018-03-08T18:44:12.403Z,7.50
2018-03-08T18:46:40.051Z,7.42
2018-03-08T18:49:07.813Z,7.46
2018-03-08T18:51:35.512Z,7.51
2018-03-08T18:54:03.228Z,7.50
2018-03-08T18:56:30.943Z,7.52
2018-03-08T18:58:58.631Z,7.49
2018-03-08T19:01:26.281Z,7.44
2018-03-08T19:03:53.985Z,7.44
2018-03-08T19:06:21.675Z,7.45
2018-03-08T19:08:49.399Z,7.45
2018-03-08T19:11:17.078Z,7.52
2018-03-08T19:13:44.777Z,7.55
2018-03-08T19:16:12.459Z,7.52
2018-03-08T19:18:40.192Z,7.45
2018-03-08T19:21:07.897Z,7.46
2018-03-08T19:23:35.589Z,7.41
2018-03-08T19:26:03.335Z,7.33
2018-03-08T19:28:31.055Z,7.44
2018-03-08T19:30:58.745Z,7.40
2018-03-08T19:33:26.402Z,7.30
2018-03-08T19:35:54.126Z,7.36
2018-03-08T19:38:21.855Z,7.39
2018-03-08T19:40:49.570Z,7.43
2018-03-08T19:43:17.270Z,7.44
2018-03-08T19:45:44.950Z,7.43
2018-03-08T19:48:12.616Z,7.32
2018-03-08T19:50:40.331Z,7.47
2018-03-08T19:53:08.114Z,7.52
2018-03-08T19:55:35.886Z,7.52
2018-03-08T19:58:03.537Z,7.52
2018-03-08T20:00:31.246Z,7.55
2018-03-08T20:02:58.943Z,7.54
2018-03-08T20:05:26.588Z,7.68
2018-03-08T20:07:54.264Z,7.73
2018-03-08T20:10:21.915Z,7.70
2018-03-08T20:12:49.595Z,7.68
2018-03-08T20:15:17.369Z,7.65
2018-03-08T20:17:45.077Z,7.66
2018-03-08T20:20:12.766Z,7.60
2018-03-08T20:22:40.477Z,7.50
2018-03-08T20:25:08.192Z,7.47
2018-03-08T20:27:35.868Z,7.24
2018-03-08T20:30:03.588Z,7.09
2018-03-08T20:32:31.315Z,6.83
2018-03-08T20:34:59.020Z,6.90
2018-03-08T20:37:26.708Z,6.79
2018-03-08T20:39:54.475Z,6.62
2018-03-08T20:42:22.127Z,6.67
2018-03-08T20:44:49.807Z,6.50
2018-03-08T20:47:17.523Z,6.25
2018-03-08T20:49:45.267Z,5.78
2018-03-08T20:52:13.050Z,5.49
2018-03-08T20:54:40.730Z,5.28
2018-03-08T20:57:08.371Z,5.27
2018-03-08T20:59:36.065Z,5.26
2018-03-08T21:02:03.730Z,5.34
2018-03-08T21:04:31.433Z,5.46
2018-03-08T21:06:59.297Z,5.42
2018-03-08T21:09:26.994Z,5.41
2018-03-08T21:11:54.702Z,5.44
2018-03-08T21:14:22.429Z,5.50
2018-03-08T21:16:50.105Z,5.45
2018-03-08T21:19:17.831Z,5.53
2018-03-08T21:21:45.450Z,5.46
2018-03-08T21:24:13.210Z,5.40
2018-03-08T21:26:41.106Z,5.31
2018-03-08T21:29:09.036Z,5.30
2018-03-08T21:31:36.720Z,5.25
2018-03-08T21:34:04.418Z,5.24
2018-03-08T21:36:32.122Z,5.26
2018-03-08T21:38:59.842Z,5.22
2018-03-08T21:41:27.543Z,5.20
2018-03-08T21:43:55.259Z,5.16
2018-03-08T21:46:23.031Z,5.10
2018-03-08T21:48:50.719Z,5.06
2018-03-08T21:51:18.429Z,4.95
2018-03-08T21:53:46.086Z,4.86
2018-03-08T21:56:13.831Z,4.81
2018-03-08T21:58:41.462Z,4.74
2018-03-08T22:01:09.166Z,4.67
2018-03-08T22:03:36.871Z,4.65
2018-03-08T22:06:04.589Z,4.64
2018-03-08T22:08:32.254Z,4.57
2018-03-08T22:10:59.951Z,4.48
2018-03-08T22:13:27.614Z,4.54
2018-03-08T22:15:55.426Z,4.59
2018-03-08T22:18:23.186Z,4.68
2018-03-08T22:20:50.883Z,4.87
2018-03-08T22:23:18.520Z,4.99
2018-03-08T22:25:46.242Z,4.94
2018-03-08T22:28:13.875Z,5.03
2018-03-08T22:30:41.562Z,5.14
2018-03-08T22:33:09.307Z,5.14
2018-03-08T22:35:36.976Z,5.16
2018-03-08T22:38:04.665Z,5.15
2018-03-08T22:40:32.398Z,5.11
2018-03-08T22:43:00.101Z,5.20
2018-03-08T22:45:27.828Z,5.20
2018-03-08T22:47:55.466Z,5.19
2018-03-08T22:50:23.258Z,5.16
2018-03-08T22:52:50.930Z,5.17
2018-03-08T22:55:18.603Z,5.13
2018-03-08T22:57:46.375Z,5.19
2018-03-08T23:00:14.074Z,5.16
2018-03-08T23:02:41.762Z,5.15
2018-03-08T23:05:09.404Z,5.14
2018-03-08T23:07:37.098Z,5.23
2018-03-08T23:10:04.775Z,5.22
2018-03-08T23:12:32.453Z,5.25
2018-03-08T23:15:00.092Z,5.26
2018-03-08T23:17:28.847Z,5.08
2018-03-08T23:19:56.514Z,5.15
2018-03-08T23:22:24.148Z,5.06
2018-03-08T23:24:51.826Z,4.94
2018-03-08T23:27:19.508Z,4.93
2018-03-08T23:29:47.189Z,4.96
2018-03-08T23:32:14.876Z,4.90
2018-03-08T23:34:42.545Z,4.84
2018-03-08T23:37:10.178Z,4.95
2018-03-08T23:39:37.855Z,5.00
2018-03-08T23:42:05.516Z,5.05
2018-03-08T23:44:33.195Z,5.16
2018-03-08T23:47:00.881Z,5.14
2018-03-08T23:49:28.559Z,5.12
2018-03-08T23:51:56.252Z,5.20
2018-03-08T23:54:23.943Z,5.14
2018-03-08T23:56:51.639Z,5.19
2018-03-08T23:59:19.278Z,5.13
